This is the latest recevied weather packets stored in our database for station/object VU3KEB-1. If no packets are shown the sender has not sent any weather packets the latest 10 day(s).
| Time | Temp. | Humidity | Pressure | Rain* | Wind** | Luminosity | Snow |
|---|---|---|---|---|---|---|---|
| 1788245909 | 28.33° C | 60% | 1033.4 hPa | - | - | - | - |
| 1788244694 | 28.89° C | 51% | 1033.8 hPa | - | - | - | - |
| 1788243477 | 28.89° C | 51% | 1033.8 hPa | - | - | - | - |
| 1788242262 | 28.33° C | 56% | 1034.6 hPa | - | - | - | - |
| 1788241047 | 27.78° C | 56% | 1034.6 hPa | - | - | - | - |
| 1788239833 | 27.22° C | 56% | 1034.6 hPa | - | - | - | - |
| 1788238618 | 26.67° C | 63% | 1034.7 hPa | - | - | - | - |
| 1788237404 | 26.67° C | 63% | 1034.7 hPa | - | - | - | - |
| 1788236190 | 26.11° C | 63% | 1034.7 hPa | - | - | - | - |
| 1788187313 | 25° C | 81% | 1032.6 hPa | - | - | - | - |
| 1788186098 | 25° C | 81% | 1032.6 hPa | - | - | - | - |
| 1788184884 | 25.56° C | 66% | 1031.9 hPa | - | - | - | - |
| 1788183670 | 26.11° C | 66% | 1031.9 hPa | - | - | - | - |
| 1788182455 | 26.67° C | 66% | 1031.9 hPa | - | - | - | - |
| 1788180026 | 27.78° C | 60% | 1030.8 hPa | - | - | - | - |
| 1788178812 | 28.33° C | 58% | 1030.9 hPa | - | - | - | - |
| 1788176388 | 29.44° C | 52% | 1030.5 hPa | - | - | - | - |
| 1788175173 | 29.44° C | 52% | 1030.5 hPa | - | - | - | - |
| 1788173959 | 30° C | 49% | 1030.5 hPa | - | - | - | - |
| 1788172744 | 30° C | 49% | 1030.5 hPa | - | - | - | - |
| 1788171529 | 30° C | 49% | 1030.5 hPa | - | - | - | - |
| 1788170312 | 30.56° C | 49% | 1030.8 hPa | - | - | - | - |
| 1788169095 | 30° C | 49% | 1030.8 hPa | - | - | - | - |
| 1788167881 | 30° C | 49% | 1030.8 hPa | - | - | - | - |
| 1788166667 | 30° C | 50% | 1031.3 hPa | - | - | - | - |
* Rain since midnight (hover to see other rain measurements)
** Current wind speed in m/s (hover to see current wind gust speed)